sensor_id;sensor_type;location;lat;lon;timestamp;temperature;humidity
14188;DHT22;7175;51.978;5.330;2022-10-13T00:00:49;11.20;99.90
14188;DHT22;7175;51.978;5.330;2022-10-13T00:03:18;11.20;99.90
14188;DHT22;7175;51.978;5.330;2022-10-13T00:05:48;11.20;99.90
14188;DHT22;7175;51.978;5.330;2022-10-13T00:08:18;11.20;99.90
14188;DHT22;7175;51.978;5.330;2022-10-13T00:10:48;11.30;99.90
14188;DHT22;7175;51.978;5.330;2022-10-13T00:13:17;11.30;99.90
14188;DHT22;7175;51.978;5.330;2022-10-13T00:15:47;11.30;99.90
14188;DHT22;7175;51.978;5.330;2022-10-13T00:18:15;11.30;99.90
14188;DHT22;7175;51.978;5.330;2022-10-13T00:20:47;11.30;99.90
14188;DHT22;7175;51.978;5.330;2022-10-13T00:23:16;11.30;99.90
14188;DHT22;7175;51.978;5.330;2022-10-13T00:25:46;11.30;99.90
14188;DHT22;7175;51.978;5.330;2022-10-13T00:28:16;11.40;99.90
14188;DHT22;7175;51.978;5.330;2022-10-13T00:30:45;11.40;99.90
14188;DHT22;7175;51.978;5.330;2022-10-13T00:33:14;11.40;99.90
14188;DHT22;7175;51.978;5.330;2022-10-13T00:35:46;11.40;99.90
14188;DHT22;7175;51.978;5.330;2022-10-13T00:38:15;11.50;99.90
14188;DHT22;7175;51.978;5.330;2022-10-13T00:40:45;11.50;99.90
14188;DHT22;7175;51.978;5.330;2022-10-13T00:43:16;11.50;99.90
14188;DHT22;7175;51.978;5.330;2022-10-13T00:45:45;11.50;99.90
14188;DHT22;7175;51.978;5.330;2022-10-13T00:48:16;11.60;99.90
14188;DHT22;7175;51.978;5.330;2022-10-13T00:50:47;11.60;99.90
14188;DHT22;7175;51.978;5.330;2022-10-13T00:53:17;11.60;99.90
14188;DHT22;7175;51.978;5.330;2022-10-13T00:55:46;11.70;99.90
14188;DHT22;7175;51.978;5.330;2022-10-13T00:58:17;11.70;99.90
14188;DHT22;7175;51.978;5.330;2022-10-13T01:00:48;11.70;99.90
14188;DHT22;7175;51.978;5.330;2022-10-13T01:03:17;11.80;99.90
14188;DHT22;7175;51.978;5.330;2022-10-13T01:05:49;11.80;99.90
14188;DHT22;7175;51.978;5.330;2022-10-13T01:08:19;11.70;99.90
14188;DHT22;7175;51.978;5.330;2022-10-13T01:10:55;11.80;99.90
14188;DHT22;7175;51.978;5.330;2022-10-13T01:13:36;11.80;99.90
14188;DHT22;7175;51.978;5.330;2022-10-13T01:16:11;11.80;99.90
14188;DHT22;7175;51.978;5.330;2022-10-13T01:18:46;11.80;99.90
14188;DHT22;7175;51.978;5.330;2022-10-13T01:21:26;11.80;99.90
14188;DHT22;7175;51.978;5.330;2022-10-13T01:27:31;11.80;99.90
14188;DHT22;7175;51.978;5.330;2022-10-13T01:30:13;11.80;99.90
14188;DHT22;7175;51.978;5.330;2022-10-13T01:32:59;11.90;99.90
14188;DHT22;7175;51.978;5.330;2022-10-13T01:35:44;11.90;99.90
14188;DHT22;7175;51.978;5.330;2022-10-13T01:38:25;12.00;99.90
14188;DHT22;7175;51.978;5.330;2022-10-13T01:41:01;12.00;99.90
14188;DHT22;7175;51.978;5.330;2022-10-13T01:43:35;11.90;99.90
14188;DHT22;7175;51.978;5.330;2022-10-13T01:46:09;12.00;99.90
14188;DHT22;7175;51.978;5.330;2022-10-13T01:48:40;12.00;99.90
14188;DHT22;7175;51.978;5.330;2022-10-13T01:51:12;12.10;99.90
14188;DHT22;7175;51.978;5.330;2022-10-13T01:53:43;12.10;99.90
14188;DHT22;7175;51.978;5.330;2022-10-13T01:56:12;12.10;99.90
14188;DHT22;7175;51.978;5.330;2022-10-13T01:58:41;12.10;99.90
14188;DHT22;7175;51.978;5.330;2022-10-13T02:01:21;12.20;99.90
14188;DHT22;7175;51.978;5.330;2022-10-13T02:04:04;12.20;99.90
14188;DHT22;7175;51.978;5.330;2022-10-13T02:06:40;12.20;99.90
14188;DHT22;7175;51.978;5.330;2022-10-13T02:09:16;12.20;99.90
14188;DHT22;7175;51.978;5.330;2022-10-13T02:11:48;12.20;99.90
14188;DHT22;7175;51.978;5.330;2022-10-13T02:14:21;12.20;99.90
14188;DHT22;7175;51.978;5.330;2022-10-13T02:16:55;12.20;99.90
14188;DHT22;7175;51.978;5.330;2022-10-13T02:19:24;12.20;99.90
14188;DHT22;7175;51.978;5.330;2022-10-13T02:21:55;12.20;99.90
14188;DHT22;7175;51.978;5.330;2022-10-13T02:24:24;12.20;99.90
14188;DHT22;7175;51.978;5.330;2022-10-13T02:26:53;12.20;99.90
14188;DHT22;7175;51.978;5.330;2022-10-13T02:29:21;12.30;99.90
14188;DHT22;7175;51.978;5.330;2022-10-13T02:31:49;12.20;99.90
14188;DHT22;7175;51.978;5.330;2022-10-13T02:34:20;12.20;99.90
14188;DHT22;7175;51.978;5.330;2022-10-13T02:36:49;12.20;99.90
14188;DHT22;7175;51.978;5.330;2022-10-13T02:39:17;12.30;99.90
14188;DHT22;7175;51.978;5.330;2022-10-13T02:41:45;12.20;99.90
14188;DHT22;7175;51.978;5.330;2022-10-13T02:44:13;12.20;99.90
14188;DHT22;7175;51.978;5.330;2022-10-13T02:46:41;12.30;99.90
14188;DHT22;7175;51.978;5.330;2022-10-13T02:49:09;12.30;99.90
14188;DHT22;7175;51.978;5.330;2022-10-13T02:51:39;12.20;99.90
14188;DHT22;7175;51.978;5.330;2022-10-13T02:54:07;12.30;99.90
14188;DHT22;7175;51.978;5.330;2022-10-13T02:56:35;12.30;99.90
14188;DHT22;7175;51.978;5.330;2022-10-13T02:59:03;12.30;99.90
14188;DHT22;7175;51.978;5.330;2022-10-13T03:01:32;12.30;99.90
14188;DHT22;7175;51.978;5.330;2022-10-13T03:04:00;12.30;99.90
14188;DHT22;7175;51.978;5.330;2022-10-13T03:06:28;12.30;99.90
14188;DHT22;7175;51.978;5.330;2022-10-13T03:08:57;12.30;99.90
14188;DHT22;7175;51.978;5.330;2022-10-13T03:11:26;12.30;99.90
14188;DHT22;7175;51.978;5.330;2022-10-13T03:13:54;12.30;99.90
14188;DHT22;7175;51.978;5.330;2022-10-13T03:16:22;12.30;99.90
14188;DHT22;7175;51.978;5.330;2022-10-13T03:18:50;12.30;99.90
14188;DHT22;7175;51.978;5.330;2022-10-13T03:21:18;12.30;99.90
14188;DHT22;7175;51.978;5.330;2022-10-13T03:23:47;12.40;99.90
14188;DHT22;7175;51.978;5.330;2022-10-13T03:26:16;12.40;99.90
14188;DHT22;7175;51.978;5.330;2022-10-13T03:28:47;12.40;99.90
14188;DHT22;7175;51.978;5.330;2022-10-13T03:31:16;12.40;99.90
14188;DHT22;7175;51.978;5.330;2022-10-13T03:33:44;12.40;99.90
14188;DHT22;7175;51.978;5.330;2022-10-13T03:36:13;12.40;99.90
14188;DHT22;7175;51.978;5.330;2022-10-13T03:38:41;12.40;99.90
14188;DHT22;7175;51.978;5.330;2022-10-13T03:41:10;12.40;99.90
14188;DHT22;7175;51.978;5.330;2022-10-13T03:43:41;12.40;99.90
14188;DHT22;7175;51.978;5.330;2022-10-13T03:46:11;12.40;99.90
14188;DHT22;7175;51.978;5.330;2022-10-13T03:48:40;12.40;99.90
14188;DHT22;7175;51.978;5.330;2022-10-13T03:51:10;12.30;99.90
14188;DHT22;7175;51.978;5.330;2022-10-13T03:53:39;12.30;99.90
14188;DHT22;7175;51.978;5.330;2022-10-13T03:56:09;12.40;99.90
14188;DHT22;7175;51.978;5.330;2022-10-13T03:58:41;12.40;99.90
14188;DHT22;7175;51.978;5.330;2022-10-13T04:01:10;12.40;99.90
14188;DHT22;7175;51.978;5.330;2022-10-13T04:03:39;12.40;99.90
14188;DHT22;7175;51.978;5.330;2022-10-13T04:06:08;12.40;99.90
14188;DHT22;7175;51.978;5.330;2022-10-13T04:08:37;12.50;99.90
14188;DHT22;7175;51.978;5.330;2022-10-13T04:11:07;12.50;99.90
14188;DHT22;7175;51.978;5.330;2022-10-13T04:13:35;12.50;99.90
14188;DHT22;7175;51.978;5.330;2022-10-13T04:16:07;12.50;99.90
14188;DHT22;7175;51.978;5.330;2022-10-13T04:18:35;12.50;99.90
14188;DHT22;7175;51.978;5.330;2022-10-13T04:21:11;12.50;99.90
14188;DHT22;7175;51.978;5.330;2022-10-13T04:23:40;12.60;99.90
14188;DHT22;7175;51.978;5.330;2022-10-13T04:26:14;12.50;99.90
14188;DHT22;7175;51.978;5.330;2022-10-13T04:28:43;12.40;99.90
14188;DHT22;7175;51.978;5.330;2022-10-13T04:31:12;12.40;99.90
14188;DHT22;7175;51.978;5.330;2022-10-13T04:33:40;12.40;99.90
14188;DHT22;7175;51.978;5.330;2022-10-13T04:36:11;12.40;99.90
14188;DHT22;7175;51.978;5.330;2022-10-13T04:38:40;12.40;99.90
14188;DHT22;7175;51.978;5.330;2022-10-13T04:41:10;12.50;99.90
14188;DHT22;7175;51.978;5.330;2022-10-13T04:43:38;12.50;99.90
14188;DHT22;7175;51.978;5.330;2022-10-13T04:46:14;12.50;99.90
14188;DHT22;7175;51.978;5.330;2022-10-13T04:48:43;12.40;99.90
14188;DHT22;7175;51.978;5.330;2022-10-13T04:51:13;12.40;99.90
14188;DHT22;7175;51.978;5.330;2022-10-13T04:53:42;12.40;99.90
14188;DHT22;7175;51.978;5.330;2022-10-13T04:56:12;12.40;99.90
14188;DHT22;7175;51.978;5.330;2022-10-13T04:58:41;12.40;99.90
14188;DHT22;7175;51.978;5.330;2022-10-13T05:01:12;12.40;99.90
14188;DHT22;7175;51.978;5.330;2022-10-13T05:03:51;12.40;99.90
14188;DHT22;7175;51.978;5.330;2022-10-13T05:06:22;12.40;99.90
14188;DHT22;7175;51.978;5.330;2022-10-13T05:08:50;12.50;99.90
14188;DHT22;7175;51.978;5.330;2022-10-13T05:11:18;12.50;99.90
14188;DHT22;7175;51.978;5.330;2022-10-13T05:13:47;12.50;99.90
14188;DHT22;7175;51.978;5.330;2022-10-13T05:16:17;12.50;99.90
14188;DHT22;7175;51.978;5.330;2022-10-13T05:18:47;12.50;99.90
14188;DHT22;7175;51.978;5.330;2022-10-13T05:21:19;12.50;99.90
14188;DHT22;7175;51.978;5.330;2022-10-13T05:23:47;12.50;99.90
14188;DHT22;7175;51.978;5.330;2022-10-13T05:26:19;12.50;99.90
14188;DHT22;7175;51.978;5.330;2022-10-13T05:28:48;12.50;99.90
14188;DHT22;7175;51.978;5.330;2022-10-13T05:31:18;12.60;99.90
14188;DHT22;7175;51.978;5.330;2022-10-13T05:33:47;12.60;99.90
14188;DHT22;7175;51.978;5.330;2022-10-13T05:36:19;12.60;99.90
14188;DHT22;7175;51.978;5.330;2022-10-13T05:38:49;12.60;99.90
14188;DHT22;7175;51.978;5.330;2022-10-13T05:41:18;12.60;99.90
14188;DHT22;7175;51.978;5.330;2022-10-13T05:43:47;12.60;99.90
14188;DHT22;7175;51.978;5.330;2022-10-13T05:46:15;12.70;99.90
14188;DHT22;7175;51.978;5.330;2022-10-13T05:48:43;12.60;99.90
14188;DHT22;7175;51.978;5.330;2022-10-13T05:51:17;12.70;99.90
14188;DHT22;7175;51.978;5.330;2022-10-13T05:53:51;12.70;99.90
14188;DHT22;7175;51.978;5.330;2022-10-13T05:56:26;12.70;99.90
14188;DHT22;7175;51.978;5.330;2022-10-13T05:58:59;12.70;99.90
14188;DHT22;7175;51.978;5.330;2022-10-13T06:01:30;12.70;99.90
14188;DHT22;7175;51.978;5.330;2022-10-13T06:04:02;12.70;99.90
14188;DHT22;7175;51.978;5.330;2022-10-13T06:06:32;12.70;99.90
14188;DHT22;7175;51.978;5.330;2022-10-13T06:09:00;12.70;99.90
14188;DHT22;7175;51.978;5.330;2022-10-13T06:11:29;12.70;99.90
14188;DHT22;7175;51.978;5.330;2022-10-13T06:13:57;12.60;99.90
14188;DHT22;7175;51.978;5.330;2022-10-13T06:16:25;12.60;99.90
14188;DHT22;7175;51.978;5.330;2022-10-13T06:18:53;12.60;99.90
14188;DHT22;7175;51.978;5.330;2022-10-13T06:21:21;12.60;99.90
14188;DHT22;7175;51.978;5.330;2022-10-13T06:23:50;12.60;99.90
14188;DHT22;7175;51.978;5.330;2022-10-13T06:26:18;12.70;99.90
14188;DHT22;7175;51.978;5.330;2022-10-13T06:28:47;12.70;99.90
14188;DHT22;7175;51.978;5.330;2022-10-13T06:31:19;12.70;99.90
14188;DHT22;7175;51.978;5.330;2022-10-13T06:33:47;12.70;99.90
14188;DHT22;7175;51.978;5.330;2022-10-13T06:36:15;12.60;99.90
14188;DHT22;7175;51.978;5.330;2022-10-13T06:38:44;12.70;99.90
14188;DHT22;7175;51.978;5.330;2022-10-13T06:41:14;12.70;99.90
14188;DHT22;7175;51.978;5.330;2022-10-13T06:43:42;12.70;99.90
14188;DHT22;7175;51.978;5.330;2022-10-13T06:46:11;12.70;99.90
14188;DHT22;7175;51.978;5.330;2022-10-13T06:48:40;12.70;99.90
14188;DHT22;7175;51.978;5.330;2022-10-13T06:51:10;12.70;99.90
14188;DHT22;7175;51.978;5.330;2022-10-13T06:53:38;12.80;99.90
14188;DHT22;7175;51.978;5.330;2022-10-13T06:56:07;12.70;99.90
14188;DHT22;7175;51.978;5.330;2022-10-13T06:58:37;12.80;99.90
14188;DHT22;7175;51.978;5.330;2022-10-13T07:01:05;12.90;99.90
14188;DHT22;7175;51.978;5.330;2022-10-13T07:03:35;12.90;99.90
14188;DHT22;7175;51.978;5.330;2022-10-13T07:06:04;12.90;99.90
14188;DHT22;7175;51.978;5.330;2022-10-13T07:08:33;12.90;99.90
14188;DHT22;7175;51.978;5.330;2022-10-13T07:11:06;13.00;99.90
14188;DHT22;7175;51.978;5.330;2022-10-13T07:13:42;12.90;99.90
14188;DHT22;7175;51.978;5.330;2022-10-13T07:16:13;13.00;99.90
14188;DHT22;7175;51.978;5.330;2022-10-13T07:18:42;13.00;99.90
14188;DHT22;7175;51.978;5.330;2022-10-13T07:21:10;13.00;99.90
14188;DHT22;7175;51.978;5.330;2022-10-13T07:23:38;13.10;99.90
14188;DHT22;7175;51.978;5.330;2022-10-13T07:26:07;13.10;99.90
14188;DHT22;7175;51.978;5.330;2022-10-13T07:28:36;13.20;99.90
14188;DHT22;7175;51.978;5.330;2022-10-13T07:31:10;13.20;99.90
14188;DHT22;7175;51.978;5.330;2022-10-13T07:33:40;13.20;99.90
14188;DHT22;7175;51.978;5.330;2022-10-13T07:36:09;13.20;99.90
14188;DHT22;7175;51.978;5.330;2022-10-13T07:38:37;13.30;99.90
14188;DHT22;7175;51.978;5.330;2022-10-13T07:41:07;13.30;99.90
14188;DHT22;7175;51.978;5.330;2022-10-13T07:43:35;13.30;99.90
14188;DHT22;7175;51.978;5.330;2022-10-13T07:46:04;13.40;99.90
14188;DHT22;7175;51.978;5.330;2022-10-13T07:48:35;13.40;99.90
14188;DHT22;7175;51.978;5.330;2022-10-13T07:51:04;13.40;99.90
14188;DHT22;7175;51.978;5.330;2022-10-13T07:53:34;13.40;99.90
14188;DHT22;7175;51.978;5.330;2022-10-13T07:56:04;13.40;99.90
14188;DHT22;7175;51.978;5.330;2022-10-13T07:58:35;13.40;99.90
14188;DHT22;7175;51.978;5.330;2022-10-13T08:01:04;13.40;99.90
14188;DHT22;7175;51.978;5.330;2022-10-13T08:03:33;13.40;99.90
14188;DHT22;7175;51.978;5.330;2022-10-13T08:06:04;13.40;99.90
14188;DHT22;7175;51.978;5.330;2022-10-13T08:08:33;13.40;99.90
14188;DHT22;7175;51.978;5.330;2022-10-13T08:11:02;13.50;99.90
14188;DHT22;7175;51.978;5.330;2022-10-13T08:13:31;13.50;99.90
14188;DHT22;7175;51.978;5.330;2022-10-13T08:16:00;13.60;99.90
14188;DHT22;7175;51.978;5.330;2022-10-13T08:18:29;13.60;99.90
14188;DHT22;7175;51.978;5.330;2022-10-13T08:21:01;13.70;99.90
14188;DHT22;7175;51.978;5.330;2022-10-13T08:23:49;13.70;99.90
14188;DHT22;7175;51.978;5.330;2022-10-13T08:26:19;13.70;99.90
14188;DHT22;7175;51.978;5.330;2022-10-13T08:28:49;13.80;99.90
14188;DHT22;7175;51.978;5.330;2022-10-13T08:31:37;13.80;99.90
14188;DHT22;7175;51.978;5.330;2022-10-13T08:34:06;13.80;99.90
14188;DHT22;7175;51.978;5.330;2022-10-13T08:36:35;13.90;99.90
14188;DHT22;7175;51.978;5.330;2022-10-13T08:39:04;13.90;99.90
14188;DHT22;7175;51.978;5.330;2022-10-13T08:41:36;13.90;99.90
14188;DHT22;7175;51.978;5.330;2022-10-13T08:44:09;13.90;99.90
14188;DHT22;7175;51.978;5.330;2022-10-13T08:47:05;13.90;99.90
14188;DHT22;7175;51.978;5.330;2022-10-13T08:49:35;14.00;99.90
14188;DHT22;7175;51.978;5.330;2022-10-13T08:52:13;14.00;99.90
14188;DHT22;7175;51.978;5.330;2022-10-13T08:54:43;14.00;99.90
14188;DHT22;7175;51.978;5.330;2022-10-13T08:57:11;14.00;99.90
14188;DHT22;7175;51.978;5.330;2022-10-13T08:59:40;14.00;99.90
14188;DHT22;7175;51.978;5.330;2022-10-13T09:02:11;14.10;99.90
14188;DHT22;7175;51.978;5.330;2022-10-13T09:04:43;14.10;99.90
14188;DHT22;7175;51.978;5.330;2022-10-13T09:07:19;14.20;99.90
14188;DHT22;7175;51.978;5.330;2022-10-13T09:09:49;14.40;99.90
14188;DHT22;7175;51.978;5.330;2022-10-13T09:12:19;14.40;99.90
14188;DHT22;7175;51.978;5.330;2022-10-13T09:14:57;14.60;99.90
14188;DHT22;7175;51.978;5.330;2022-10-13T09:17:28;14.60;99.90
14188;DHT22;7175;51.978;5.330;2022-10-13T09:19:59;14.60;99.90
14188;DHT22;7175;51.978;5.330;2022-10-13T09:22:31;14.60;99.90
14188;DHT22;7175;51.978;5.330;2022-10-13T09:25:16;14.50;99.90
14188;DHT22;7175;51.978;5.330;2022-10-13T09:27:47;14.60;99.90
14188;DHT22;7175;51.978;5.330;2022-10-13T09:30:28;14.70;99.90
14188;DHT22;7175;51.978;5.330;2022-10-13T09:33:19;14.80;99.90
14188;DHT22;7175;51.978;5.330;2022-10-13T09:36:04;14.90;99.90
14188;DHT22;7175;51.978;5.330;2022-10-13T09:38:34;15.00;99.90
14188;DHT22;7175;51.978;5.330;2022-10-13T09:41:04;15.00;99.90
14188;DHT22;7175;51.978;5.330;2022-10-13T09:43:35;15.10;99.90
14188;DHT22;7175;51.978;5.330;2022-10-13T09:46:12;15.20;99.90
14188;DHT22;7175;51.978;5.330;2022-10-13T09:48:47;15.20;99.90
14188;DHT22;7175;51.978;5.330;2022-10-13T09:51:35;15.20;99.90
14188;DHT22;7175;51.978;5.330;2022-10-13T09:54:21;15.20;99.90
14188;DHT22;7175;51.978;5.330;2022-10-13T09:56:52;15.20;99.90
14188;DHT22;7175;51.978;5.330;2022-10-13T09:59:27;15.20;99.90
14188;DHT22;7175;51.978;5.330;2022-10-13T10:01:57;15.20;99.90
14188;DHT22;7175;51.978;5.330;2022-10-13T10:04:32;15.20;99.90
14188;DHT22;7175;51.978;5.330;2022-10-13T10:07:09;15.30;99.90
14188;DHT22;7175;51.978;5.330;2022-10-13T10:09:43;15.30;99.90
14188;DHT22;7175;51.978;5.330;2022-10-13T10:12:15;15.20;99.90
14188;DHT22;7175;51.978;5.330;2022-10-13T10:14:48;15.20;99.90
14188;DHT22;7175;51.978;5.330;2022-10-13T10:17:24;15.30;99.90
14188;DHT22;7175;51.978;5.330;2022-10-13T10:20:01;15.40;99.90
14188;DHT22;7175;51.978;5.330;2022-10-13T10:22:36;15.50;99.90
14188;DHT22;7175;51.978;5.330;2022-10-13T10:25:17;15.50;99.90
14188;DHT22;7175;51.978;5.330;2022-10-13T10:27:53;15.60;99.90
14188;DHT22;7175;51.978;5.330;2022-10-13T10:30:24;15.60;99.90
14188;DHT22;7175;51.978;5.330;2022-10-13T10:32:59;15.60;99.90
14188;DHT22;7175;51.978;5.330;2022-10-13T10:35:37;15.60;99.90
14188;DHT22;7175;51.978;5.330;2022-10-13T10:38:21;15.60;99.90
14188;DHT22;7175;51.978;5.330;2022-10-13T10:40:58;15.60;99.90
14188;DHT22;7175;51.978;5.330;2022-10-13T10:43:42;15.60;99.90
14188;DHT22;7175;51.978;5.330;2022-10-13T10:46:19;15.50;99.90
14188;DHT22;7175;51.978;5.330;2022-10-13T10:48:52;15.50;99.90
14188;DHT22;7175;51.978;5.330;2022-10-13T10:51:28;15.50;99.90
14188;DHT22;7175;51.978;5.330;2022-10-13T10:54:08;15.50;99.90
14188;DHT22;7175;51.978;5.330;2022-10-13T10:56:48;15.50;99.90
14188;DHT22;7175;51.978;5.330;2022-10-13T10:59:26;15.50;99.90
14188;DHT22;7175;51.978;5.330;2022-10-13T11:02:05;15.30;99.90
14188;DHT22;7175;51.978;5.330;2022-10-13T11:04:42;15.30;99.90
14188;DHT22;7175;51.978;5.330;2022-10-13T11:07:13;15.30;99.90
14188;DHT22;7175;51.978;5.330;2022-10-13T11:10:14;15.40;99.90
14188;DHT22;7175;51.978;5.330;2022-10-13T11:13:14;15.40;99.90
14188;DHT22;7175;51.978;5.330;2022-10-13T11:15:44;15.50;99.90
14188;DHT22;7175;51.978;5.330;2022-10-13T11:18:54;15.50;99.90
14188;DHT22;7175;51.978;5.330;2022-10-13T11:21:22;15.50;99.90
14188;DHT22;7175;51.978;5.330;2022-10-13T11:23:50;15.40;99.90
14188;DHT22;7175;51.978;5.330;2022-10-13T11:26:40;15.50;99.90
14188;DHT22;7175;51.978;5.330;2022-10-13T11:29:18;15.50;99.90
14188;DHT22;7175;51.978;5.330;2022-10-13T11:32:42;15.50;99.90
14188;DHT22;7175;51.978;5.330;2022-10-13T11:35:24;15.50;99.90
14188;DHT22;7175;51.978;5.330;2022-10-13T11:38:03;15.40;99.90
14188;DHT22;7175;51.978;5.330;2022-10-13T11:40:44;15.30;99.90
14188;DHT22;7175;51.978;5.330;2022-10-13T11:43:30;15.20;99.90
14188;DHT22;7175;51.978;5.330;2022-10-13T11:46:24;15.10;99.90
14188;DHT22;7175;51.978;5.330;2022-10-13T11:49:26;15.10;99.90
14188;DHT22;7175;51.978;5.330;2022-10-13T11:52:17;15.00;99.90
14188;DHT22;7175;51.978;5.330;2022-10-13T11:54:54;14.90;99.90
14188;DHT22;7175;51.978;5.330;2022-10-13T11:57:24;14.90;99.90
14188;DHT22;7175;51.978;5.330;2022-10-13T11:59:54;14.90;99.90
14188;DHT22;7175;51.978;5.330;2022-10-13T12:02:24;14.90;99.90
14188;DHT22;7175;51.978;5.330;2022-10-13T12:05:04;14.90;99.90
14188;DHT22;7175;51.978;5.330;2022-10-13T12:07:34;14.90;99.90
14188;DHT22;7175;51.978;5.330;2022-10-13T12:10:06;14.90;99.90
14188;DHT22;7175;51.978;5.330;2022-10-13T12:12:36;14.80;99.90
14188;DHT22;7175;51.978;5.330;2022-10-13T12:15:29;14.80;99.90
14188;DHT22;7175;51.978;5.330;2022-10-13T12:17:58;14.70;99.90
14188;DHT22;7175;51.978;5.330;2022-10-13T12:20:29;14.70;99.90
14188;DHT22;7175;51.978;5.330;2022-10-13T12:22:57;14.70;99.90
14188;DHT22;7175;51.978;5.330;2022-10-13T12:25:28;14.70;99.90
14188;DHT22;7175;51.978;5.330;2022-10-13T12:27:58;14.70;99.90
14188;DHT22;7175;51.978;5.330;2022-10-13T12:30:28;14.60;99.90
14188;DHT22;7175;51.978;5.330;2022-10-13T12:32:58;14.70;99.90
14188;DHT22;7175;51.978;5.330;2022-10-13T12:35:31;14.60;99.90
14188;DHT22;7175;51.978;5.330;2022-10-13T12:38:02;14.60;99.90
14188;DHT22;7175;51.978;5.330;2022-10-13T12:40:30;14.60;99.90
14188;DHT22;7175;51.978;5.330;2022-10-13T12:42:59;14.50;99.90
14188;DHT22;7175;51.978;5.330;2022-10-13T12:45:32;14.60;99.90
14188;DHT22;7175;51.978;5.330;2022-10-13T12:48:01;14.60;99.90
14188;DHT22;7175;51.978;5.330;2022-10-13T12:50:35;14.70;99.90
14188;DHT22;7175;51.978;5.330;2022-10-13T12:53:20;14.70;99.90
14188;DHT22;7175;51.978;5.330;2022-10-13T12:55:53;14.70;99.90
14188;DHT22;7175;51.978;5.330;2022-10-13T12:58:27;14.60;99.90
14188;DHT22;7175;51.978;5.330;2022-10-13T13:01:08;14.60;99.90
14188;DHT22;7175;51.978;5.330;2022-10-13T13:03:38;14.60;99.90
14188;DHT22;7175;51.978;5.330;2022-10-13T13:06:20;14.60;99.90
14188;DHT22;7175;51.978;5.330;2022-10-13T13:09:08;14.60;99.90
14188;DHT22;7175;51.978;5.330;2022-10-13T13:11:45;14.70;99.90
14188;DHT22;7175;51.978;5.330;2022-10-13T13:14:30;14.70;99.90
14188;DHT22;7175;51.978;5.330;2022-10-13T13:17:05;14.70;99.90
14188;DHT22;7175;51.978;5.330;2022-10-13T13:19:34;14.80;99.90
14188;DHT22;7175;51.978;5.330;2022-10-13T13:22:05;14.80;99.90
14188;DHT22;7175;51.978;5.330;2022-10-13T13:24:34;14.80;99.90
14188;DHT22;7175;51.978;5.330;2022-10-13T13:27:29;14.90;99.90
14188;DHT22;7175;51.978;5.330;2022-10-13T13:29:58;14.90;99.90
14188;DHT22;7175;51.978;5.330;2022-10-13T13:32:27;15.00;99.90
14188;DHT22;7175;51.978;5.330;2022-10-13T13:34:56;15.10;99.90
14188;DHT22;7175;51.978;5.330;2022-10-13T13:37:29;15.20;99.90
14188;DHT22;7175;51.978;5.330;2022-10-13T13:39:58;15.20;99.90
14188;DHT22;7175;51.978;5.330;2022-10-13T13:42:26;15.30;99.90
14188;DHT22;7175;51.978;5.330;2022-10-13T13:44:55;15.50;99.90
14188;DHT22;7175;51.978;5.330;2022-10-13T13:47:25;15.50;99.90
14188;DHT22;7175;51.978;5.330;2022-10-13T13:49:54;15.50;99.90
14188;DHT22;7175;51.978;5.330;2022-10-13T13:52:23;15.60;99.90
14188;DHT22;7175;51.978;5.330;2022-10-13T13:54:53;15.80;99.90
14188;DHT22;7175;51.978;5.330;2022-10-13T13:57:22;15.80;99.90
14188;DHT22;7175;51.978;5.330;2022-10-13T13:59:50;15.70;99.90
14188;DHT22;7175;51.978;5.330;2022-10-13T14:02:19;15.70;99.90
14188;DHT22;7175;51.978;5.330;2022-10-13T14:04:48;15.50;99.90
14188;DHT22;7175;51.978;5.330;2022-10-13T14:07:16;15.50;99.90
14188;DHT22;7175;51.978;5.330;2022-10-13T14:09:45;15.50;99.90
14188;DHT22;7175;51.978;5.330;2022-10-13T14:12:15;15.50;99.90
14188;DHT22;7175;51.978;5.330;2022-10-13T14:14:43;15.50;99.90
14188;DHT22;7175;51.978;5.330;2022-10-13T14:17:11;15.50;99.90
14188;DHT22;7175;51.978;5.330;2022-10-13T14:19:40;15.50;99.90
14188;DHT22;7175;51.978;5.330;2022-10-13T14:22:09;15.50;99.90
14188;DHT22;7175;51.978;5.330;2022-10-13T14:24:37;15.60;99.90
14188;DHT22;7175;51.978;5.330;2022-10-13T14:27:05;15.60;99.90
14188;DHT22;7175;51.978;5.330;2022-10-13T14:29:36;15.50;99.90
14188;DHT22;7175;51.978;5.330;2022-10-13T14:32:04;15.50;99.90
14188;DHT22;7175;51.978;5.330;2022-10-13T14:34:33;15.50;99.90
14188;DHT22;7175;51.978;5.330;2022-10-13T14:37:02;15.40;99.90
14188;DHT22;7175;51.978;5.330;2022-10-13T14:39:30;15.30;99.90
14188;DHT22;7175;51.978;5.330;2022-10-13T14:41:58;15.30;99.90
14188;DHT22;7175;51.978;5.330;2022-10-13T14:44:26;15.30;99.90
14188;DHT22;7175;51.978;5.330;2022-10-13T14:46:55;15.30;99.90
14188;DHT22;7175;51.978;5.330;2022-10-13T14:49:24;15.30;99.90
14188;DHT22;7175;51.978;5.330;2022-10-13T14:51:52;15.30;99.90
14188;DHT22;7175;51.978;5.330;2022-10-13T14:54:20;15.30;99.90
14188;DHT22;7175;51.978;5.330;2022-10-13T14:56:49;15.30;99.90
14188;DHT22;7175;51.978;5.330;2022-10-13T14:59:18;15.30;99.90
14188;DHT22;7175;51.978;5.330;2022-10-13T15:01:47;15.30;99.90
14188;DHT22;7175;51.978;5.330;2022-10-13T15:04:17;15.30;99.90
14188;DHT22;7175;51.978;5.330;2022-10-13T15:06:45;15.30;99.90
14188;DHT22;7175;51.978;5.330;2022-10-13T15:09:13;15.40;99.90
14188;DHT22;7175;51.978;5.330;2022-10-13T15:11:41;15.30;99.90
14188;DHT22;7175;51.978;5.330;2022-10-13T15:14:12;15.30;99.90
14188;DHT22;7175;51.978;5.330;2022-10-13T15:16:40;15.20;99.90
14188;DHT22;7175;51.978;5.330;2022-10-13T15:19:08;15.20;99.90
14188;DHT22;7175;51.978;5.330;2022-10-13T15:21:38;15.20;99.90
14188;DHT22;7175;51.978;5.330;2022-10-13T15:24:08;15.20;99.90
14188;DHT22;7175;51.978;5.330;2022-10-13T15:26:36;15.10;99.90
14188;DHT22;7175;51.978;5.330;2022-10-13T15:29:04;15.10;99.90
14188;DHT22;7175;51.978;5.330;2022-10-13T15:31:33;15.20;99.90
14188;DHT22;7175;51.978;5.330;2022-10-13T15:34:01;15.20;99.90
14188;DHT22;7175;51.978;5.330;2022-10-13T15:36:29;15.20;99.90
14188;DHT22;7175;51.978;5.330;2022-10-13T15:38:58;15.20;99.90
14188;DHT22;7175;51.978;5.330;2022-10-13T15:41:26;15.10;99.90
14188;DHT22;7175;51.978;5.330;2022-10-13T15:43:54;15.10;99.90
14188;DHT22;7175;51.978;5.330;2022-10-13T15:46:23;15.10;99.90
14188;DHT22;7175;51.978;5.330;2022-10-13T15:48:52;15.10;99.90
14188;DHT22;7175;51.978;5.330;2022-10-13T15:51:22;15.20;99.90
14188;DHT22;7175;51.978;5.330;2022-10-13T15:53:52;15.20;99.90
14188;DHT22;7175;51.978;5.330;2022-10-13T15:56:23;15.10;99.90
14188;DHT22;7175;51.978;5.330;2022-10-13T15:58:51;15.10;99.90
14188;DHT22;7175;51.978;5.330;2022-10-13T16:01:19;15.10;99.90
14188;DHT22;7175;51.978;5.330;2022-10-13T16:03:52;15.10;99.90
14188;DHT22;7175;51.978;5.330;2022-10-13T16:06:20;15.10;99.90
14188;DHT22;7175;51.978;5.330;2022-10-13T16:08:48;15.10;99.90
14188;DHT22;7175;51.978;5.330;2022-10-13T16:11:18;15.00;99.90
14188;DHT22;7175;51.978;5.330;2022-10-13T16:13:49;15.10;99.90
14188;DHT22;7175;51.978;5.330;2022-10-13T16:16:18;15.00;99.90
14188;DHT22;7175;51.978;5.330;2022-10-13T16:18:47;15.00;99.90